createdAt,value
2022-10-04T00:00:27.531Z,100.00
2022-10-04T00:01:19.306Z,100.00
2022-10-04T00:01:58.394Z,100.00
2022-10-04T00:02:33.961Z,100.00
2022-10-04T00:03:10.640Z,100.00
2022-10-04T00:03:47.509Z,100.00
2022-10-04T00:04:30.076Z,100.00
2022-10-04T00:05:07.649Z,100.00
2022-10-04T00:05:40.806Z,100.00
2022-10-04T00:06:18.083Z,100.00
2022-10-04T00:06:54.007Z,100.00
2022-10-04T00:07:29.510Z,100.00
2022-10-04T00:08:18.312Z,100.00
2022-10-04T00:09:00.117Z,100.00
2022-10-04T00:09:45.857Z,100.00
2022-10-04T00:10:30.229Z,100.00
2022-10-04T00:11:05.460Z,100.00
2022-10-04T00:11:38.346Z,100.00
2022-10-04T00:12:19.552Z,100.00
2022-10-04T00:12:53.441Z,100.00
2022-10-04T00:13:25.884Z,100.00
2022-10-04T00:14:06.107Z,100.00
2022-10-04T00:14:39.338Z,100.00
2022-10-04T00:15:20.863Z,100.00
2022-10-04T00:15:52.590Z,100.00
2022-10-04T00:16:33.339Z,100.00
2022-10-04T00:17:11.033Z,100.00
2022-10-04T00:17:42.596Z,100.00
2022-10-04T00:18:16.707Z,100.00
2022-10-04T00:18:48.225Z,100.00
2022-10-04T00:19:19.679Z,100.00
2022-10-04T00:19:51.918Z,100.00
2022-10-04T00:20:48.211Z,100.00
2022-10-04T00:21:19.720Z,100.00
2022-10-04T00:21:53.897Z,100.00
2022-10-04T00:22:32.594Z,100.00
2022-10-04T00:23:23.030Z,100.00
2022-10-04T00:24:19.117Z,100.00
2022-10-04T00:25:09.868Z,100.00
2022-10-04T00:25:41.358Z,100.00
2022-10-04T00:26:35.698Z,100.00
2022-10-04T00:27:23.410Z,100.00
2022-10-04T00:28:27.348Z,100.00
2022-10-04T00:28:58.874Z,100.00
2022-10-04T00:29:33.389Z,100.00
2022-10-04T00:30:04.842Z,100.00
2022-10-04T00:30:38.415Z,100.00
2022-10-04T00:31:09.937Z,100.00
2022-10-04T00:32:10.243Z,100.00
2022-10-04T00:32:41.700Z,100.00
2022-10-04T00:33:37.102Z,100.00
2022-10-04T00:34:08.600Z,100.00
2022-10-04T00:34:51.396Z,100.00
2022-10-04T00:35:25.831Z,100.00
2022-10-04T00:35:57.526Z,100.00
2022-10-04T00:36:44.534Z,100.00
2022-10-04T00:37:18.378Z,100.00
2022-10-04T00:38:02.288Z,100.00
2022-10-04T00:38:33.817Z,100.00
2022-10-04T00:39:05.261Z,100.00
2022-10-04T00:39:39.273Z,100.00
2022-10-04T00:40:16.813Z,100.00
2022-10-04T00:40:55.283Z,100.00
2022-10-04T00:41:27.361Z,100.00
2022-10-04T00:42:13.525Z,100.00
2022-10-04T00:42:56.502Z,100.00
2022-10-04T00:43:27.960Z,100.00
2022-10-04T00:43:59.588Z,100.00
2022-10-04T00:44:31.086Z,100.00
2022-10-04T00:45:24.942Z,100.00
2022-10-04T00:46:22.943Z,100.00
2022-10-04T00:46:55.733Z,100.00
2022-10-04T00:47:33.257Z,100.00
2022-10-04T00:48:16.459Z,100.00
2022-10-04T00:49:00.797Z,100.00
2022-10-04T00:49:35.172Z,100.00
2022-10-04T00:50:39.913Z,100.00
2022-10-04T00:51:28.666Z,100.00
2022-10-04T00:52:12.671Z,100.00
2022-10-04T00:52:48.288Z,100.00
2022-10-04T00:53:36.675Z,100.00
2022-10-04T00:54:24.014Z,100.00
2022-10-04T00:55:06.523Z,100.00
2022-10-04T00:55:49.721Z,100.00
2022-10-04T00:56:38.759Z,100.00
2022-10-04T00:57:25.296Z,100.00
2022-10-04T00:57:59.776Z,100.00
2022-10-04T00:58:38.637Z,100.00
2022-10-04T00:59:43.205Z,100.00
2022-10-04T01:00:17.636Z,100.00
2022-10-04T01:00:49.536Z,100.00
2022-10-04T01:01:24.080Z,100.00
2022-10-04T01:02:16.012Z,100.00
2022-10-04T01:02:58.960Z,100.00
2022-10-04T01:03:34.515Z,100.00
2022-10-04T01:04:21.665Z,100.00
2022-10-04T01:05:10.690Z,100.00
2022-10-04T01:05:48.066Z,100.00
2022-10-04T01:06:20.631Z,100.00
2022-10-04T01:06:52.838Z,100.00
2022-10-04T01:07:29.601Z,100.00
2022-10-04T01:08:10.394Z,100.00
2022-10-04T01:08:48.642Z,100.00
2022-10-04T01:09:21.780Z,100.00
2022-10-04T01:09:57.218Z,100.00
2022-10-04T01:10:31.950Z,100.00
2022-10-04T01:11:07.422Z,100.00
2022-10-04T01:11:44.400Z,100.00
2022-10-04T01:12:40.163Z,100.00
2022-10-04T01:13:19.020Z,100.00
2022-10-04T01:13:56.384Z,100.00
2022-10-04T01:14:35.131Z,100.00
2022-10-04T01:15:20.119Z,100.00
2022-10-04T01:16:04.996Z,100.00
2022-10-04T01:16:37.908Z,100.00
2022-10-04T01:17:10.097Z,100.00
2022-10-04T01:17:41.572Z,100.00
2022-10-04T01:18:18.843Z,100.00
2022-10-04T01:18:50.671Z,100.00
2022-10-04T01:19:22.117Z,100.00
2022-10-04T01:19:54.429Z,100.00
2022-10-04T01:20:33.309Z,100.00
2022-10-04T01:21:20.072Z,100.00
2022-10-04T01:22:09.905Z,100.00
2022-10-04T01:22:44.659Z,100.00
2022-10-04T01:23:41.759Z,100.00
2022-10-04T01:24:13.239Z,100.00
2022-10-04T01:24:46.024Z,100.00
2022-10-04T01:25:43.043Z,100.00
2022-10-04T01:26:26.666Z,100.00
2022-10-04T01:26:58.404Z,100.00
2022-10-04T01:27:36.347Z,100.00
2022-10-04T01:28:07.932Z,100.00
2022-10-04T01:28:39.648Z,100.00
2022-10-04T01:29:14.510Z,100.00
2022-10-04T01:29:46.058Z,100.00
2022-10-04T01:30:17.685Z,100.00
2022-10-04T01:30:49.372Z,100.00
2022-10-04T01:31:21.397Z,100.00
2022-10-04T01:31:55.280Z,100.00
2022-10-04T01:32:27.127Z,100.00
2022-10-04T01:32:58.664Z,100.00
2022-10-04T01:33:31.118Z,100.00
2022-10-04T01:34:05.225Z,100.00
2022-10-04T01:34:40.478Z,100.00
2022-10-04T01:35:13.737Z,100.00
2022-10-04T01:35:45.392Z,100.00
2022-10-04T01:36:16.895Z,100.00
2022-10-04T01:36:51.389Z,100.00
2022-10-04T01:37:23.033Z,100.00
2022-10-04T01:37:55.755Z,100.00
2022-10-04T01:38:27.270Z,100.00
2022-10-04T01:38:58.792Z,100.00
2022-10-04T01:39:31.092Z,100.00
2022-10-04T01:40:02.809Z,100.00
2022-10-04T01:40:45.860Z,100.00
2022-10-04T01:41:21.815Z,100.00
2022-10-04T01:42:10.769Z,100.00
2022-10-04T01:42:49.788Z,100.00
2022-10-04T01:43:27.828Z,100.00
2022-10-04T01:44:01.212Z,100.00
2022-10-04T01:44:53.730Z,100.00
2022-10-04T01:45:44.229Z,100.00
2022-10-04T01:46:33.980Z,100.00
2022-10-04T01:47:15.985Z,100.00
2022-10-04T01:47:57.433Z,100.00
2022-10-04T01:48:32.565Z,100.00
2022-10-04T01:49:08.930Z,100.00
2022-10-04T01:49:42.212Z,100.00
2022-10-04T01:50:17.776Z,100.00
2022-10-04T01:50:59.776Z,100.00
2022-10-04T01:51:34.045Z,100.00
2022-10-04T01:52:09.863Z,100.00
2022-10-04T01:52:44.241Z,100.00
2022-10-04T01:53:20.557Z,100.00
2022-10-04T01:54:00.423Z,100.00
2022-10-04T01:54:35.122Z,100.00
2022-10-04T01:55:29.512Z,100.00
2022-10-04T01:56:07.276Z,100.00
2022-10-04T01:56:43.505Z,100.00
2022-10-04T01:57:23.962Z,100.00
2022-10-04T01:58:02.215Z,100.00
2022-10-04T01:58:43.963Z,100.00
2022-10-04T01:59:21.695Z,100.00
2022-10-04T02:00:05.120Z,100.00
2022-10-04T02:00:46.502Z,100.00
2022-10-04T02:01:27.480Z,100.00
2022-10-04T02:02:07.868Z,100.00
2022-10-04T02:02:51.797Z,100.00
2022-10-04T02:03:44.215Z,100.00
2022-10-04T02:04:22.328Z,100.00
2022-10-04T02:04:56.858Z,100.00
2022-10-04T02:05:35.204Z,100.00
2022-10-04T02:06:08.619Z,100.00
2022-10-04T02:06:42.840Z,100.00
2022-10-04T02:07:15.978Z,100.00
2022-10-04T02:07:48.508Z,100.00
2022-10-04T02:08:25.631Z,100.00
2022-10-04T02:08:58.236Z,100.00
2022-10-04T02:09:33.970Z,100.00
2022-10-04T02:10:10.113Z,100.00
2022-10-04T02:10:43.820Z,100.00
2022-10-04T02:11:22.366Z,100.00
2022-10-04T02:11:54.731Z,100.00
2022-10-04T02:12:28.000Z,100.00
2022-10-04T02:12:59.981Z,100.00
2022-10-04T02:13:38.803Z,100.00
2022-10-04T02:14:19.436Z,100.00
2022-10-04T02:14:55.825Z,100.00
2022-10-04T02:15:28.233Z,100.00
2022-10-04T02:16:00.260Z,100.00
2022-10-04T02:16:35.945Z,100.00
2022-10-04T02:17:10.803Z,100.00
2022-10-04T02:17:43.937Z,100.00
2022-10-04T02:18:17.763Z,100.00
2022-10-04T02:18:49.942Z,100.00
2022-10-04T02:19:28.323Z,100.00
2022-10-04T02:20:01.478Z,100.00
2022-10-04T02:20:34.033Z,100.00
2022-10-04T02:21:08.301Z,100.00
2022-10-04T02:21:40.552Z,100.00
2022-10-04T02:22:12.236Z,100.00
2022-10-04T02:22:45.874Z,100.00
2022-10-04T02:23:19.319Z,100.00
2022-10-04T02:23:52.124Z,100.00
2022-10-04T02:24:23.825Z,100.00
2022-10-04T02:24:56.517Z,100.00
2022-10-04T02:25:28.023Z,100.00
2022-10-04T02:25:59.714Z,100.00
2022-10-04T02:26:31.252Z,100.00
2022-10-04T02:27:03.159Z,100.00
2022-10-04T02:27:34.917Z,100.00
2022-10-04T02:28:10.910Z,100.00
2022-10-04T02:28:42.696Z,100.00
2022-10-04T02:29:14.234Z,100.00
2022-10-04T02:29:45.768Z,100.00
2022-10-04T02:30:17.271Z,100.00
2022-10-04T02:31:09.992Z,100.00
2022-10-04T02:32:00.003Z,100.00
2022-10-04T02:32:51.745Z,100.00
2022-10-04T02:33:23.291Z,100.00
2022-10-04T02:33:57.030Z,100.00
2022-10-04T02:34:28.609Z,100.00
2022-10-04T02:35:00.179Z,100.00
2022-10-04T02:35:37.016Z,100.00
2022-10-04T02:36:09.681Z,100.00
2022-10-04T02:36:41.630Z,100.00
2022-10-04T02:37:14.160Z,100.00
2022-10-04T02:37:48.539Z,100.00
2022-10-04T02:38:23.505Z,100.00
2022-10-04T02:39:03.550Z,100.00
2022-10-04T02:39:38.940Z,100.00
2022-10-04T02:40:16.429Z,100.00
2022-10-04T02:41:02.214Z,100.00
2022-10-04T02:41:43.823Z,100.00
2022-10-04T02:42:50.045Z,100.00
2022-10-04T02:43:35.316Z,100.00
2022-10-04T02:44:18.284Z,100.00
2022-10-04T02:44:56.500Z,100.00
2022-10-04T02:45:41.090Z,100.00
2022-10-04T02:46:16.888Z,100.00
2022-10-04T02:47:06.685Z,100.00
2022-10-04T02:47:45.432Z,100.00
2022-10-04T02:48:30.357Z,100.00
2022-10-04T02:49:06.433Z,100.00
2022-10-04T02:49:46.684Z,100.00
2022-10-04T02:50:21.068Z,100.00
2022-10-04T02:50:53.486Z,100.00
2022-10-04T02:51:47.932Z,100.00
2022-10-04T02:52:34.644Z,100.00
2022-10-04T02:53:26.751Z,100.00
2022-10-04T02:54:11.480Z,100.00
2022-10-04T02:54:55.290Z,100.00
2022-10-04T02:55:28.499Z,100.00
2022-10-04T02:56:02.518Z,100.00
2022-10-04T02:56:34.622Z,100.00
2022-10-04T02:57:14.141Z,100.00
2022-10-04T02:57:45.865Z,100.00
2022-10-04T02:58:19.993Z,100.00
2022-10-04T02:58:52.628Z,100.00
2022-10-04T02:59:24.688Z,100.00
2022-10-04T03:00:28.220Z,100.00
2022-10-04T03:01:00.673Z,100.00
2022-10-04T03:01:51.248Z,100.00
2022-10-04T03:02:30.288Z,100.00
2022-10-04T03:03:20.093Z,100.00
2022-10-04T03:03:52.407Z,100.00
2022-10-04T03:04:39.286Z,100.00
2022-10-04T03:05:12.401Z,100.00
2022-10-04T03:05:48.012Z,100.00
2022-10-04T03:06:20.774Z,100.00
2022-10-04T03:06:52.948Z,100.00
2022-10-04T03:07:25.280Z,100.00
2022-10-04T03:07:56.898Z,100.00
2022-10-04T03:08:32.360Z,100.00
2022-10-04T03:09:05.499Z,100.00
2022-10-04T03:09:37.977Z,100.00
2022-10-04T03:10:12.490Z,100.00
2022-10-04T03:10:44.257Z,100.00
2022-10-04T03:11:16.564Z,100.00
2022-10-04T03:11:49.742Z,100.00
2022-10-04T03:12:22.251Z,100.00
2022-10-04T03:12:53.733Z,100.00
2022-10-04T03:13:25.541Z,100.00
2022-10-04T03:13:59.263Z,100.00
2022-10-04T03:14:31.857Z,100.00
2022-10-04T03:15:03.623Z,100.00
2022-10-04T03:15:35.354Z,100.00
2022-10-04T03:16:07.329Z,100.00
2022-10-04T03:16:41.793Z,100.00
2022-10-04T03:17:14.706Z,100.00
2022-10-04T03:17:46.353Z,100.00
2022-10-04T03:18:18.321Z,100.00
2022-10-04T03:18:50.090Z,100.00
2022-10-04T03:19:23.847Z,100.00
2022-10-04T03:19:57.177Z,100.00
2022-10-04T03:20:28.992Z,100.00
2022-10-04T03:21:02.840Z,100.00
2022-10-04T03:21:36.038Z,100.00
2022-10-04T03:22:09.902Z,100.00
2022-10-04T03:22:46.883Z,100.00
2022-10-04T03:23:20.388Z,100.00
2022-10-04T03:23:52.486Z,100.00
2022-10-04T03:24:28.663Z,100.00
2022-10-04T03:25:00.474Z,100.00
2022-10-04T03:25:53.681Z,100.00
2022-10-04T03:26:33.246Z,100.00
2022-10-04T03:27:07.129Z,100.00
2022-10-04T03:27:39.588Z,100.00
2022-10-04T03:28:11.357Z,100.00
2022-10-04T03:28:43.291Z,100.00
2022-10-04T03:29:16.598Z,100.00
2022-10-04T03:29:50.328Z,100.00
2022-10-04T03:30:22.043Z,100.00
2022-10-04T03:30:54.534Z,100.00
2022-10-04T03:31:27.842Z,100.00
2022-10-04T03:32:02.031Z,100.00
2022-10-04T03:32:33.549Z,100.00
2022-10-04T03:33:05.733Z,100.00
2022-10-04T03:33:37.404Z,100.00
2022-10-04T03:34:32.637Z,100.00
2022-10-04T03:35:07.641Z,100.00
2022-10-04T03:35:40.596Z,100.00
2022-10-04T03:36:17.172Z,100.00
2022-10-04T03:36:50.143Z,100.00
2022-10-04T03:37:21.936Z,100.00
2022-10-04T03:37:53.508Z,100.00
2022-10-04T03:38:26.474Z,100.00
2022-10-04T03:38:58.690Z,100.00
2022-10-04T03:39:50.411Z,100.00
2022-10-04T03:40:27.221Z,100.00
2022-10-04T03:41:00.726Z,100.00
2022-10-04T03:41:33.176Z,100.00
2022-10-04T03:42:10.447Z,100.00
2022-10-04T03:42:45.100Z,100.00
2022-10-04T03:43:16.722Z,100.00
2022-10-04T03:44:12.329Z,100.00
2022-10-04T03:44:48.495Z,100.00
2022-10-04T03:45:21.182Z,100.00
2022-10-04T03:45:53.326Z,100.00
2022-10-04T03:46:25.472Z,100.00
2022-10-04T03:46:56.962Z,100.00
2022-10-04T03:47:32.519Z,100.00
2022-10-04T03:48:07.257Z,100.00
2022-10-04T03:48:45.227Z,100.00
2022-10-04T03:49:28.714Z,100.00
2022-10-04T03:50:03.769Z,100.00
2022-10-04T03:50:41.764Z,100.00
2022-10-04T03:51:18.867Z,100.00
2022-10-04T03:51:51.015Z,100.00
2022-10-04T03:52:25.341Z,100.00
2022-10-04T03:52:59.100Z,100.00
2022-10-04T03:53:45.986Z,100.00
2022-10-04T03:54:23.608Z,100.00
2022-10-04T03:54:58.382Z,100.00
2022-10-04T03:55:35.276Z,100.00
2022-10-04T03:56:13.637Z,100.00
2022-10-04T03:56:45.833Z,100.00
2022-10-04T03:57:17.709Z,100.00
2022-10-04T03:57:50.004Z,100.00
2022-10-04T03:58:22.720Z,100.00
2022-10-04T03:58:55.228Z,100.00
2022-10-04T03:59:27.124Z,100.00
2022-10-04T03:59:59.278Z,100.00
2022-10-04T04:00:31.668Z,100.00
2022-10-04T04:01:39.482Z,100.00
2022-10-04T04:02:26.017Z,100.00
2022-10-04T04:03:00.048Z,100.00
2022-10-04T04:03:41.878Z,100.00
2022-10-04T04:04:43.028Z,100.00
2022-10-04T04:05:29.393Z,100.00
2022-10-04T04:06:05.889Z,100.00
2022-10-04T04:06:44.642Z,100.00
2022-10-04T04:07:37.498Z,100.00
2022-10-04T04:08:28.825Z,100.00
2022-10-04T04:09:00.849Z,100.00
2022-10-04T04:09:41.428Z,100.00
2022-10-04T04:10:18.775Z,100.00
2022-10-04T04:10:53.282Z,100.00
2022-10-04T04:11:26.489Z,100.00
2022-10-04T04:11:58.160Z,100.00
2022-10-04T04:12:49.900Z,100.00
2022-10-04T04:13:28.009Z,100.00
2022-10-04T04:14:28.881Z,100.00
2022-10-04T04:15:01.369Z,100.00
2022-10-04T04:15:33.980Z,100.00
2022-10-04T04:16:05.969Z,100.00
2022-10-04T04:16:38.231Z,100.00
2022-10-04T04:17:27.858Z,100.00
2022-10-04T04:18:04.678Z,100.00
2022-10-04T04:18:38.749Z,100.00
2022-10-04T04:19:13.315Z,100.00
2022-10-04T04:19:46.224Z,100.00
2022-10-04T04:20:22.526Z,100.00
2022-10-04T04:20:59.084Z,100.00
2022-10-04T04:21:31.115Z,100.00
2022-10-04T04:22:02.680Z,100.00
2022-10-04T04:22:35.479Z,100.00
2022-10-04T04:23:15.592Z,100.00
2022-10-04T04:23:58.084Z,100.00
2022-10-04T04:24:32.172Z,100.00
2022-10-04T04:25:08.352Z,100.00
2022-10-04T04:25:42.415Z,100.00
2022-10-04T04:26:35.598Z,100.00
2022-10-04T04:27:09.280Z,100.00
2022-10-04T04:27:42.113Z,100.00
2022-10-04T04:28:21.353Z,100.00
2022-10-04T04:29:03.382Z,100.00
2022-10-04T04:29:50.951Z,100.00
2022-10-04T04:30:22.744Z,100.00
2022-10-04T04:31:23.455Z,100.00
2022-10-04T04:32:02.668Z,100.00
2022-10-04T04:32:40.262Z,100.00
2022-10-04T04:33:28.616Z,100.00
2022-10-04T04:34:02.921Z,100.00
2022-10-04T04:34:49.136Z,100.00
2022-10-04T04:35:30.247Z,100.00
2022-10-04T04:36:06.518Z,100.00
2022-10-04T04:36:41.686Z,100.00
2022-10-04T04:37:13.180Z,100.00
2022-10-04T04:37:44.663Z,100.00
2022-10-04T04:38:23.910Z,100.00
2022-10-04T04:39:28.274Z,100.00
2022-10-04T04:40:31.222Z,100.00
2022-10-04T04:41:11.907Z,100.00
2022-10-04T04:41:46.992Z,100.00
2022-10-04T04:42:28.450Z,100.00
2022-10-04T04:43:01.549Z,100.00
2022-10-04T04:43:33.237Z,100.00
2022-10-04T04:44:16.268Z,100.00
2022-10-04T04:44:53.807Z,100.00
2022-10-04T04:45:29.630Z,100.00
2022-10-04T04:46:26.029Z,100.00
2022-10-04T04:47:00.356Z,100.00
2022-10-04T04:47:37.073Z,100.00
2022-10-04T04:48:14.510Z,100.00
2022-10-04T04:48:47.969Z,100.00
2022-10-04T04:49:19.558Z,100.00
2022-10-04T04:49:51.105Z,100.00
2022-10-04T04:50:32.062Z,100.00
2022-10-04T04:51:03.533Z,100.00
2022-10-04T04:51:34.947Z,100.00
2022-10-04T04:52:14.804Z,100.00
2022-10-04T04:52:50.238Z,100.00
2022-10-04T04:53:28.331Z,100.00
2022-10-04T04:54:02.678Z,100.00
2022-10-04T04:54:34.390Z,100.00
2022-10-04T04:55:07.130Z,100.00
2022-10-04T04:56:02.260Z,100.00
2022-10-04T04:56:34.622Z,100.00
2022-10-04T04:57:06.480Z,100.00
2022-10-04T04:57:39.017Z,100.00
2022-10-04T04:58:20.100Z,100.00
2022-10-04T04:58:53.048Z,100.00
2022-10-04T04:59:25.579Z,100.00
2022-10-04T05:00:00.158Z,100.00
2022-10-04T05:00:34.792Z,100.00
2022-10-04T05:01:21.825Z,100.00
2022-10-04T05:01:53.442Z,100.00
2022-10-04T05:02:28.546Z,100.00
2022-10-04T05:03:02.018Z,100.00
2022-10-04T05:03:34.201Z,100.00
2022-10-04T05:04:14.351Z,100.00
2022-10-04T05:04:45.883Z,100.00
2022-10-04T05:05:20.191Z,100.00
2022-10-04T05:05:52.292Z,100.00
2022-10-04T05:06:27.861Z,100.00
2022-10-04T05:07:15.558Z,100.00
2022-10-04T05:07:47.710Z,100.00
2022-10-04T05:08:21.925Z,100.00
2022-10-04T05:08:53.478Z,100.00
2022-10-04T05:09:32.745Z,100.00
2022-10-04T05:10:21.343Z,100.00
2022-10-04T05:11:08.306Z,100.00
2022-10-04T05:11:41.086Z,100.00
2022-10-04T05:12:21.706Z,100.00
2022-10-04T05:12:53.591Z,100.00
2022-10-04T05:13:32.101Z,100.00
2022-10-04T05:14:09.771Z,100.00
2022-10-04T05:14:46.297Z,100.00
2022-10-04T05:15:19.541Z,100.00
2022-10-04T05:15:53.960Z,100.00
2022-10-04T05:16:49.497Z,100.00
2022-10-04T05:17:24.636Z,100.00
2022-10-04T05:17:56.193Z,100.00
2022-10-04T05:18:33.136Z,100.00
2022-10-04T05:19:14.366Z,100.00
2022-10-04T05:19:46.374Z,100.00
2022-10-04T05:20:18.322Z,100.00
2022-10-04T05:20:51.121Z,100.00
2022-10-04T05:21:28.660Z,100.00
2022-10-04T05:22:03.936Z,100.00
2022-10-04T05:22:35.485Z,100.00
2022-10-04T05:23:11.591Z,100.00
2022-10-04T05:23:43.289Z,100.00
2022-10-04T05:24:25.040Z,100.00
2022-10-04T05:24:59.459Z,100.00
2022-10-04T05:25:33.301Z,100.00
2022-10-04T05:26:11.109Z,100.00
2022-10-04T05:26:42.964Z,100.00
2022-10-04T05:27:35.011Z,100.00
2022-10-04T05:28:10.809Z,100.00
2022-10-04T05:28:42.441Z,100.00
2022-10-04T05:29:19.744Z,100.00
2022-10-04T05:30:05.813Z,100.00
2022-10-04T05:30:43.189Z,100.00
2022-10-04T05:31:27.490Z,100.00
2022-10-04T05:32:16.373Z,100.00
2022-10-04T05:33:11.585Z,100.00
2022-10-04T05:33:46.981Z,100.00
2022-10-04T05:34:30.804Z,100.00
2022-10-04T05:35:02.396Z,100.00
2022-10-04T05:36:00.060Z,100.00
2022-10-04T05:36:46.697Z,100.00
2022-10-04T05:38:01.260Z,100.00
2022-10-04T05:38:51.705Z,100.00
2022-10-04T05:39:27.889Z,100.00
2022-10-04T05:40:04.124Z,100.00
2022-10-04T05:40:44.769Z,100.00
2022-10-04T05:41:47.139Z,100.00
2022-10-04T05:42:26.945Z,100.00
2022-10-04T05:42:59.498Z,100.00
2022-10-04T05:43:50.035Z,100.00
2022-10-04T05:44:28.882Z,100.00
2022-10-04T05:45:01.285Z,100.00
2022-10-04T05:45:32.902Z,100.00
2022-10-04T05:46:15.616Z,100.00
2022-10-04T05:46:47.379Z,100.00
2022-10-04T05:47:23.972Z,100.00
2022-10-04T05:47:57.483Z,100.00
2022-10-04T05:48:28.986Z,100.00
2022-10-04T05:49:08.890Z,100.00
2022-10-04T05:49:44.279Z,100.00
2022-10-04T05:50:43.530Z,100.00
2022-10-04T05:51:19.815Z,100.00
2022-10-04T05:51:55.616Z,100.00
2022-10-04T05:52:38.513Z,100.00
2022-10-04T05:53:35.696Z,100.00
2022-10-04T05:54:09.518Z,100.00
2022-10-04T05:54:41.562Z,100.00
2022-10-04T05:55:13.165Z,100.00
2022-10-04T05:55:59.955Z,100.00
2022-10-04T05:56:31.558Z,100.00
2022-10-04T05:57:24.849Z,100.00
2022-10-04T05:58:02.991Z,100.00
2022-10-04T05:58:48.168Z,100.00
2022-10-04T05:59:31.622Z,100.00
2022-10-04T06:00:11.237Z,100.00
2022-10-04T06:00:54.027Z,100.00
2022-10-04T06:01:47.497Z,100.00
2022-10-04T06:02:31.452Z,100.00
2022-10-04T06:03:14.542Z,100.00
2022-10-04T06:03:46.067Z,100.00
2022-10-04T06:04:28.613Z,100.00
2022-10-04T06:05:10.115Z,100.00
2022-10-04T06:05:50.312Z,100.00
2022-10-04T06:06:31.279Z,100.00
2022-10-04T06:07:21.589Z,100.00
2022-10-04T06:08:11.792Z,100.00
2022-10-04T06:08:47.199Z,100.00
2022-10-04T06:09:18.612Z,100.00
2022-10-04T06:09:50.033Z,100.00
2022-10-04T06:10:44.148Z,100.00
2022-10-04T06:11:33.994Z,100.00
2022-10-04T06:12:13.464Z,100.00
2022-10-04T06:12:53.401Z,100.00
2022-10-04T06:13:36.744Z,100.00
2022-10-04T06:14:08.506Z,100.00
2022-10-04T06:14:48.729Z,100.00
2022-10-04T06:15:35.304Z,100.00
2022-10-04T06:16:12.729Z,100.00
2022-10-04T06:16:52.918Z,100.00
2022-10-04T06:17:33.189Z,100.00
2022-10-04T06:18:04.599Z,100.00
2022-10-04T06:18:46.685Z,100.00
2022-10-04T06:19:18.056Z,100.00
2022-10-04T06:19:49.438Z,100.00
2022-10-04T06:20:24.429Z,100.00
2022-10-04T06:21:14.446Z,100.00
2022-10-04T06:22:01.795Z,100.00
2022-10-04T06:22:33.305Z,100.00
2022-10-04T06:23:06.251Z,100.00
2022-10-04T06:23:42.448Z,100.00
2022-10-04T06:24:18.564Z,100.00
2022-10-04T06:24:50.813Z,100.00
2022-10-04T06:25:31.150Z,100.00
2022-10-04T06:26:10.696Z,100.00
2022-10-04T06:26:45.470Z,100.00
2022-10-04T06:27:36.947Z,100.00
2022-10-04T06:28:14.051Z,100.00
2022-10-04T06:28:49.785Z,100.00
2022-10-04T06:29:22.809Z,100.00
2022-10-04T06:30:04.728Z,100.00
2022-10-04T06:30:43.393Z,100.00
2022-10-04T06:31:37.850Z,100.00
2022-10-04T06:32:28.084Z,100.00
2022-10-04T06:33:02.348Z,100.00
2022-10-04T06:33:52.378Z,100.00
2022-10-04T06:34:32.843Z,100.00
2022-10-04T06:35:10.447Z,100.00
2022-10-04T06:36:01.230Z,100.00
2022-10-04T06:36:51.172Z,100.00
2022-10-04T06:37:22.649Z,100.00
2022-10-04T06:37:57.350Z,100.00
2022-10-04T06:39:05.060Z,100.00
2022-10-04T06:39:46.296Z,100.00
2022-10-04T06:40:17.696Z,100.00
2022-10-04T06:41:07.873Z,100.00
2022-10-04T06:41:45.364Z,100.00
2022-10-04T06:42:34.029Z,100.00
2022-10-04T06:43:20.175Z,100.00
2022-10-04T06:44:14.841Z,100.00
2022-10-04T06:44:52.062Z,100.00
2022-10-04T06:45:29.647Z,100.00
2022-10-04T06:46:01.125Z,100.00
2022-10-04T06:46:32.677Z,100.00
2022-10-04T06:47:21.306Z,100.00
2022-10-04T06:48:12.640Z,100.00
2022-10-04T06:48:50.463Z,100.00
2022-10-04T06:49:27.376Z,100.00
2022-10-04T06:50:07.917Z,100.00
2022-10-04T06:50:40.042Z,100.00
2022-10-04T06:51:20.678Z,100.00
2022-10-04T06:51:57.837Z,100.00
2022-10-04T06:52:48.321Z,100.00
2022-10-04T06:53:31.751Z,100.00
2022-10-04T06:54:18.788Z,100.00
2022-10-04T06:54:59.389Z,100.00
2022-10-04T06:55:44.048Z,100.00
2022-10-04T06:56:30.898Z,100.00
2022-10-04T06:57:05.325Z,100.00
2022-10-04T06:57:36.740Z,100.00
2022-10-04T06:58:13.845Z,100.00
2022-10-04T06:59:00.972Z,100.00
2022-10-04T06:59:32.363Z,100.00
2022-10-04T07:00:13.004Z,100.00
2022-10-04T07:01:01.242Z,100.00
2022-10-04T07:01:37.622Z,100.00
2022-10-04T07:02:15.623Z,100.00
2022-10-04T07:02:51.358Z,100.00
2022-10-04T07:03:52.417Z,100.00
2022-10-04T07:05:07.128Z,100.00
2022-10-04T07:05:40.013Z,100.00
2022-10-04T07:06:11.970Z,100.00
2022-10-04T07:07:21.792Z,100.00
2022-10-04T07:08:06.547Z,100.00
2022-10-04T07:08:59.792Z,100.00
2022-10-04T07:09:31.538Z,100.00
2022-10-04T07:10:05.552Z,100.00
2022-10-04T07:10:47.576Z,100.00
2022-10-04T07:11:22.181Z,100.00
2022-10-04T07:11:55.821Z,100.00
2022-10-04T07:12:27.476Z,100.00
2022-10-04T07:13:16.428Z,100.00
2022-10-04T07:14:03.314Z,100.00
2022-10-04T07:14:37.093Z,100.00
2022-10-04T07:15:12.947Z,100.00
2022-10-04T07:15:50.066Z,100.00
2022-10-04T07:16:30.395Z,100.00
2022-10-04T07:17:03.259Z,100.00
2022-10-04T07:17:37.990Z,100.00
2022-10-04T07:18:10.784Z,100.00
2022-10-04T07:19:04.399Z,100.00
2022-10-04T07:19:47.742Z,100.00
2022-10-04T07:20:31.009Z,100.00
2022-10-04T07:21:09.962Z,100.00
2022-10-04T07:21:46.409Z,94.68
2022-10-04T07:22:31.378Z,90.19
2022-10-04T07:23:03.352Z,85.61
2022-10-04T07:23:37.151Z,82.23
2022-10-04T07:24:09.928Z,77.70
2022-10-04T07:24:59.776Z,75.50
2022-10-04T07:25:51.457Z,70.08
2022-10-04T07:26:25.765Z,66.21
2022-10-04T07:26:57.194Z,63.96
2022-10-04T07:27:30.803Z,63.47
2022-10-04T07:28:22.472Z,66.03
2022-10-04T07:29:13.461Z,72.88
2022-10-04T07:29:46.589Z,73.80
2022-10-04T07:30:18.990Z,73.79
2022-10-04T07:30:56.238Z,74.88
2022-10-04T07:31:29.310Z,75.31
2022-10-04T07:32:20.413Z,76.00
2022-10-04T07:32:53.070Z,77.30
2022-10-04T07:33:25.484Z,78.36
2022-10-04T07:33:58.371Z,79.73
2022-10-04T07:34:30.841Z,81.34
2022-10-04T07:35:04.358Z,82.45
2022-10-04T07:35:39.651Z,83.07
2022-10-04T07:36:12.353Z,81.90
2022-10-04T07:36:47.058Z,81.54
2022-10-04T07:37:18.848Z,79.57
2022-10-04T07:38:02.255Z,77.15
2022-10-04T07:38:34.783Z,77.34
2022-10-04T07:39:19.249Z,78.79
2022-10-04T07:39:59.318Z,77.36
2022-10-04T07:40:32.597Z,78.15
2022-10-04T07:41:17.782Z,78.89
2022-10-04T07:41:52.501Z,78.47
2022-10-04T07:42:29.637Z,76.73
2022-10-04T07:43:04.232Z,74.93
2022-10-04T07:43:41.729Z,74.07
2022-10-04T07:44:16.080Z,73.38
2022-10-04T07:44:48.916Z,72.09
2022-10-04T07:45:30.057Z,71.26
2022-10-04T07:46:03.573Z,71.12
2022-10-04T07:46:37.295Z,69.85
2022-10-04T07:47:18.061Z,69.07
2022-10-04T07:47:49.670Z,66.87
2022-10-04T07:48:23.525Z,66.38
2022-10-04T07:48:55.071Z,64.76
2022-10-04T07:49:27.058Z,63.13
2022-10-04T07:49:58.515Z,63.15
2022-10-04T07:50:32.167Z,62.97
2022-10-04T07:51:19.897Z,63.49
2022-10-04T07:52:03.186Z,58.79
2022-10-04T07:52:34.652Z,57.94
2022-10-04T07:53:09.822Z,56.73
2022-10-04T07:53:47.854Z,55.56
2022-10-04T07:54:33.711Z,53.37
2022-10-04T07:55:08.336Z,53.80
2022-10-04T07:55:57.911Z,54.90
2022-10-04T07:56:36.144Z,53.79
2022-10-04T07:57:33.600Z,52.74
2022-10-04T07:58:10.453Z,52.65
2022-10-04T07:58:45.888Z,52.82
2022-10-04T07:59:23.351Z,53.91
2022-10-04T08:00:12.878Z,55.05
2022-10-04T08:00:53.133Z,54.11
2022-10-04T08:01:36.169Z,55.59
2022-10-04T08:02:13.599Z,58.33